Tropical Cyclones
[Index]
Main Index Home Page Stock Weather Photos Extreme Storms Discussion Storm News and Storm Chasing Reports Tropical Cyclones / Hurricanes / Typhoons Weather Data and Links Wild Fires / Bushfires Weather Observation Techniques Weather Picture Catalogue Tornado Pictures and Reports Stock Video Footage and DVDs for sale
Season 2007-2008 Tropical Cyclone NICHOLAS Track Map
Season 2007-2008 Summaries (Operational Data): [AU] [SIO] [SPAC] [SH]
<<- Previous TC | 2007-2008 Season | Next TC ->>

click for intensity scale information  Lat/long Grid: Show Hide

 Date Labels: Show Hide

Operational Tropical Cyclone Data : JTWC Advisories | BoM Warnings

Name: NICHOLAS
Number: 0819

12 Feb 2008 12:00 UTC to 20 Feb 2008 12:00 UTC

    date/time    lat    long     hPa   cat  kts
2008-02-12 12   15.2   120.1     990         25          
2008-02-12 18   15.1   120.4     988         30          
2008-02-13 00   14.9   119.8     980    1    40          
2008-02-13 06   14.4   120.8     980    1    40          
2008-02-13 12   14.9   121.3     980    1    40          
2008-02-13 18   15.3   121.4     980    1    40          
2008-02-14 00   15.7   121.4     980    1    40          
2008-02-14 06   15.9   120.8     980    1    40          
2008-02-14 12   16.1   120.5     980    1    40          
2008-02-14 18   16.2   120.2     980    1    40          
2008-02-15 00   15.9   119.7     974    2    50          
2008-02-15 06   15.8   119.5     974    2    50          
2008-02-15 12   16.2   119.3     974    2    50          
2008-02-15 18   16.4   117.8     966    2    55          
2008-02-16 00   16.0   118.1     966    2    55          
2008-02-16 06   16.8   118.1     960    3    65          
2008-02-16 12   17.8   117.4     956    3    70          
2008-02-16 18   17.6   116.9     944    3    80          
2008-02-17 00   17.9   116.4     944    3    80          
2008-02-17 06   18.3   115.8     956    3    70          
2008-02-17 12   18.7   115.4     956    3    70          
2008-02-17 18   19.0   114.7     956    3    70          
2008-02-18 00   19.1   114.4     956    3    70          
2008-02-18 06   19.8   114.1     964    2    60          
2008-02-18 12   20.4   113.8     964    2    60          
2008-02-18 18   20.9   113.5     964    2    60          
2008-02-19 00   21.4   113.4     964    2    60          
2008-02-19 06   21.9   113.4     968    2    55          
2008-02-19 12   22.3   113.7     974    2    50          
2008-02-19 18   22.9   113.7     978    1    45          
2008-02-20 00   23.4   113.6     984    1    40          
2008-02-20 06   24.5   113.8     990         30          
2008-02-20 12   25.6   114.2                             
Winds are 10-min average.

Tropical cyclone tracks developed by Michael Bath using operational warnings and advisories and Google Maps.


[Australian Severe Weather index] [Copyright Notice] [Email Contacts] [Search This Site] [Privacy Policy]
Document: tropical_cyclone_nicholas.htm Updated: 2 May 2017